Time;durP1;ratioP1;P1;durP2;ratioP2;P2;SDS_P1;SDS_P2;PMS_P1;PMS_P2;Temp;Humidity;BMP_temperature;BMP_pressure;BME280_temperature;BME280_humidity;BME280_pressure;Samples;Min_cycle;Max_cycle;Signal;HPM_P1;HPM_P2
2022/03/21 00:00:41;;;;;;;10.98;9.23;;;16.20;67.90;;;;;;2284416;62;30604;-79
2022/03/21 00:03:10;;;;;;;11.65;10.45;;;16.20;68.00;;;;;;2284322;62;30061;-79
2022/03/21 00:05:36;;;;;;;10.95;9.85;;;16.10;67.90;;;;;;2284486;62;30173;-79
2022/03/21 00:08:02;;;;;;;12.00;10.10;;;16.10;68.00;;;;;;2284286;62;30821;-79
2022/03/21 00:10:30;;;;;;;11.80;10.60;;;16.10;68.10;;;;;;2284142;62;30220;-79
2022/03/21 00:12:56;;;;;;;10.85;9.77;;;16.00;68.10;;;;;;2284302;62;30120;-79
2022/03/21 00:15:23;;;;;;;12.93;10.57;;;16.00;68.20;;;;;;2273750;62;30162;-79
2022/03/21 00:17:49;;;;;;;14.95;10.68;;;16.00;68.30;;;;;;2283882;62;31113;-80
2022/03/21 00:20:15;;;;;;;12.05;10.85;;;15.90;68.30;;;;;;2284222;62;30611;-79
2022/03/21 00:22:42;;;;;;;11.38;10.27;;;15.90;68.40;;;;;;2284287;62;30367;-79
2022/03/21 00:25:08;;;;;;;12.25;10.82;;;15.90;68.40;;;;;;2284029;62;30227;-79
2022/03/21 00:27:35;;;;;;;11.52;10.43;;;15.80;68.50;;;;;;2276836;62;30265;-79
2022/03/21 00:30:01;;;;;;;12.98;10.63;;;15.80;68.50;;;;;;2284001;62;30064;-79
2022/03/21 00:32:28;;;;;;;11.45;10.32;;;15.80;68.60;;;;;;2284186;62;30714;-79
2022/03/21 00:34:53;;;;;;;12.52;11.32;;;15.70;68.60;;;;;;2283973;62;30261;-79
2022/03/21 00:37:20;;;;;;;12.30;11.00;;;15.70;68.60;;;;;;2283871;62;32101;-79
2022/03/21 00:39:45;;;;;;;13.40;11.40;;;15.70;68.70;;;;;;2284537;62;30596;-79
2022/03/21 00:42:11;;;;;;;12.77;11.02;;;15.70;68.80;;;;;;2278093;62;30251;-79
2022/03/21 00:44:38;;;;;;;11.93;10.73;;;15.70;68.90;;;;;;2285164;62;30226;-79
2022/03/21 00:47:04;;;;;;;16.42;12.30;;;15.60;68.90;;;;;;2285346;62;31048;-79
2022/03/21 00:49:30;;;;;;;12.43;10.93;;;15.60;68.90;;;;;;2285397;62;31831;-79
2022/03/21 00:51:56;;;;;;;12.48;11.18;;;15.60;69.00;;;;;;2277768;62;30631;-78
2022/03/21 00:54:22;;;;;;;13.07;11.68;;;15.60;69.00;;;;;;2278025;62;30084;-79
2022/03/21 00:56:47;;;;;;;13.45;11.07;;;15.50;69.00;;;;;;2285360;62;32201;-79
2022/03/21 00:59:13;;;;;;;12.27;10.88;;;15.50;69.10;;;;;;2285094;62;30185;-79
2022/03/21 01:01:39;;;;;;;13.88;11.32;;;15.50;69.10;;;;;;2285355;62;30169;-79
2022/03/21 01:04:07;;;;;;;12.15;10.82;;;15.50;69.20;;;;;;2285363;62;30139;-79
2022/03/21 01:06:33;;;;;;;12.77;11.35;;;15.50;69.30;;;;;;2290455;62;31240;-79
2022/03/21 01:08:59;;;;;;;11.48;10.38;;;15.40;69.30;;;;;;2285103;62;31666;-79
2022/03/21 01:11:25;;;;;;;12.07;10.88;;;15.40;69.30;;;;;;2285372;62;30089;-79
2022/03/21 01:13:51;;;;;;;12.25;10.95;;;15.40;69.40;;;;;;2285158;62;30337;-79
2022/03/21 01:16:17;;;;;;;12.82;10.55;;;15.40;69.50;;;;;;2285298;62;31091;-78
2022/03/21 01:18:45;;;;;;;12.13;10.93;;;15.40;69.50;;;;;;2285486;62;30599;-78
2022/03/21 01:21:14;;;;;;;11.95;10.50;;;15.30;69.50;;;;;;2285103;62;30126;-78
2022/03/21 01:23:40;;;;;;;12.73;10.88;;;15.30;69.60;;;;;;2285257;62;30119;-78
2022/03/21 01:26:06;;;;;;;11.82;10.73;;;15.30;69.60;;;;;;2285327;62;30145;-78
2022/03/21 01:28:32;;;;;;;11.77;10.60;;;15.30;69.60;;;;;;2284953;62;31577;-78
2022/03/21 01:30:58;;;;;;;12.10;10.32;;;15.30;69.70;;;;;;2285104;62;30164;-79
2022/03/21 01:33:24;;;;;;;12.20;10.70;;;15.30;69.80;;;;;;2284938;62;30273;-79
2022/03/21 01:35:50;;;;;;;13.98;11.07;;;15.20;69.80;;;;;;2277829;62;30842;-79
2022/03/21 01:38:15;;;;;;;12.13;10.82;;;15.20;69.80;;;;;;2284973;62;30440;-79
2022/03/21 01:40:41;;;;;;;11.82;10.48;;;15.20;69.90;;;;;;2284880;62;30246;-79
2022/03/21 01:43:10;;;;;;;10.88;9.77;;;15.20;69.90;;;;;;2285128;62;30173;-79
2022/03/21 01:45:36;;;;;;;11.00;9.90;;;15.20;70.00;;;;;;2285246;62;31183;-79
2022/03/21 01:48:02;;;;;;;11.75;10.35;;;15.10;69.90;;;;;;2284965;62;30461;-79
2022/03/21 01:50:29;;;;;;;11.23;10.13;;;15.10;70.00;;;;;;2285016;62;30531;-79
2022/03/21 01:55:43;;;;;;;10.90;9.80;;;15.10;70.10;;;;;;2284805;62;30243;-79
2022/03/21 01:55:44;;;;;;;10.27;9.27;;;15.10;70.10;;;;;;2284829;62;32161;-79
2022/03/21 01:58:13;;;;;;;15.43;11.50;;;15.10;70.20;;;;;;2278097;62;30248;-79
2022/03/21 02:00:42;;;;;;;10.57;9.45;;;15.00;70.20;;;;;;2277837;62;30304;-80
2022/03/21 02:03:09;;;;;;;10.05;9.05;;;15.00;70.20;;;;;;2271143;62;30151;-80
2022/03/21 02:05:37;;;;;;;10.55;9.48;;;15.00;70.20;;;;;;2284950;62;31295;-80
2022/03/21 02:08:04;;;;;;;10.30;9.30;;;15.00;70.30;;;;;;2277563;62;30347;-79
2022/03/21 02:10:30;;;;;;;10.05;9.05;;;15.00;70.30;;;;;;2284790;62;30322;-80
2022/03/21 02:12:56;;;;;;;12.18;9.30;;;15.00;70.40;;;;;;2284636;62;31378;-79
2022/03/21 02:15:22;;;;;;;10.43;9.38;;;15.00;70.40;;;;;;2284986;62;31081;-80
2022/03/21 02:17:59;;;;;;;11.00;9.48;;;15.00;70.40;;;;;;2284567;62;30507;-80
2022/03/21 02:20:25;;;;;;;11.00;9.38;;;15.00;70.60;;;;;;2285027;62;30207;-79
2022/03/21 02:23:11;;;;;;;9.70;8.80;;;14.90;70.50;;;;;;2277474;62;30200;-80
2022/03/21 02:25:42;;;;;;;11.55;10.05;;;14.90;70.50;;;;;;2277635;62;31209;-80
2022/03/21 02:28:11;;;;;;;10.38;9.13;;;14.90;70.60;;;;;;2284886;62;30310;-79
2022/03/21 02:30:39;;;;;;;10.20;9.07;;;14.90;70.60;;;;;;2284392;62;30401;-79
2022/03/21 02:33:05;;;;;;;10.05;9.02;;;14.80;70.60;;;;;;2284811;62;30273;-80
2022/03/21 02:35:33;;;;;;;9.57;8.57;;;14.80;70.70;;;;;;2284801;62;30313;-80
2022/03/21 02:37:59;;;;;;;11.63;8.82;;;14.90;70.80;;;;;;2284570;62;30856;-80
2022/03/21 02:40:25;;;;;;;10.02;8.88;;;14.80;70.70;;;;;;2284856;62;30630;-79
2022/03/21 02:42:51;;;;;;;10.55;9.45;;;14.80;70.80;;;;;;2284878;62;30308;-80
2022/03/21 02:45:17;;;;;;;11.75;9.45;;;14.80;70.80;;;;;;2277145;62;30835;-79
2022/03/21 02:47:43;;;;;;;11.00;9.48;;;14.80;70.90;;;;;;2288786;62;30168;-79
2022/03/21 02:50:16;;;;;;;9.63;8.63;;;14.70;70.80;;;;;;2288799;62;30284;-79
2022/03/21 02:52:42;;;;;;;11.40;8.55;;;14.70;71.00;;;;;;2284853;62;30125;-80
2022/03/21 02:55:08;;;;;;;11.43;8.80;;;14.70;70.90;;;;;;2277483;62;31192;-79
2022/03/21 02:57:34;;;;;;;10.82;8.40;;;14.70;71.00;;;;;;2284691;62;30688;-80
2022/03/21 03:00:00;;;;;;;9.75;8.85;;;14.70;71.00;;;;;;2284609;62;29969;-79
2022/03/21 03:02:26;;;;;;;9.45;7.97;;;14.70;71.10;;;;;;2284485;62;30756;-79
2022/03/21 03:04:52;;;;;;;9.90;8.60;;;14.60;71.00;;;;;;2284516;62;32976;-80
2022/03/21 03:07:20;;;;;;;10.43;8.40;;;14.60;71.00;;;;;;2284637;62;30987;-79
2022/03/21 03:09:45;;;;;;;9.00;7.80;;;14.60;71.10;;;;;;2284785;62;30096;-79
2022/03/21 03:12:11;;;;;;;9.07;8.18;;;14.60;71.10;;;;;;2284471;62;30299;-79
2022/03/21 03:14:37;;;;;;;9.32;8.43;;;14.60;71.10;;;;;;2284653;62;31185;-79
2022/03/21 03:17:03;;;;;;;9.95;8.27;;;14.60;71.20;;;;;;2284657;62;30119;-79
2022/03/21 03:19:30;;;;;;;9.48;8.30;;;14.60;71.20;;;;;;2284539;62;30062;-79
2022/03/21 03:21:56;;;;;;;8.50;7.70;;;14.50;71.20;;;;;;2284706;62;30182;-79
2022/03/21 03:24:25;;;;;;;8.95;8.05;;;14.60;71.20;;;;;;2277246;62;30113;-80
2022/03/21 03:26:51;;;;;;;8.73;7.80;;;14.50;71.30;;;;;;2276961;62;31808;-79
2022/03/21 03:29:17;;;;;;;10.77;7.85;;;14.50;71.30;;;;;;2284624;62;30014;-79
2022/03/21 03:31:43;;;;;;;9.38;8.38;;;14.50;71.40;;;;;;2284576;62;30132;-78
2022/03/21 03:34:09;;;;;;;9.40;7.82;;;14.50;71.40;;;;;;2284332;62;30265;-78
2022/03/21 03:36:35;;;;;;;8.35;7.55;;;14.50;71.40;;;;;;2284465;62;30749;-79
2022/03/21 03:39:01;;;;;;;8.52;7.72;;;14.40;71.50;;;;;;2285133;62;30124;-78
2022/03/21 03:41:27;;;;;;;8.38;7.57;;;14.40;71.50;;;;;;2286613;62;30324;-78
2022/03/21 03:43:56;;;;;;;8.73;7.68;;;14.40;71.50;;;;;;2284542;62;30326;-78
2022/03/21 03:46:22;;;;;;;8.75;7.32;;;14.40;71.50;;;;;;2284602;62;30164;-79
2022/03/21 03:48:48;;;;;;;9.10;7.50;;;14.40;71.50;;;;;;2276849;62;30312;-79
2022/03/21 03:51:14;;;;;;;8.50;7.45;;;14.40;71.50;;;;;;2284579;62;30351;-79
2022/03/21 03:53:40;;;;;;;8.50;7.53;;;14.40;71.50;;;;;;2284253;62;30180;-79
2022/03/21 03:56:09;;;;;;;9.20;7.25;;;14.40;71.60;;;;;;2284336;62;31838;-79
2022/03/21 03:58:35;;;;;;;8.98;7.63;;;14.30;71.60;;;;;;2284538;62;30464;-79
2022/03/21 04:01:04;;;;;;;8.75;7.93;;;14.30;71.60;;;;;;2284184;62;30176;-78
2022/03/21 04:03:45;;;;;;;9.02;8.13;;;14.30;71.70;;;;;;2277205;62;30126;-78
2022/03/21 04:06:16;;;;;;;8.15;7.35;;;14.30;71.70;;;;;;2277815;62;30273;-78
2022/03/21 04:08:45;;;;;;;8.70;7.53;;;14.30;71.70;;;;;;2284349;62;30119;-78
2022/03/21 04:11:11;;;;;;;8.45;7.32;;;14.30;71.70;;;;;;2284467;62;30133;-78
2022/03/21 04:13:41;;;;;;;9.07;8.00;;;14.30;71.70;;;;;;2284413;62;31594;-78
2022/03/21 04:16:07;;;;;;;8.30;7.50;;;14.20;71.70;;;;;;2285373;62;30324;-79
2022/03/21 04:18:34;;;;;;;8.93;8.00;;;14.20;71.70;;;;;;2285797;62;30242;-79
2022/03/21 04:21:00;;;;;;;9.23;8.13;;;14.20;71.80;;;;;;2278503;62;30223;-78
2022/03/21 04:23:25;;;;;;;8.80;7.68;;;14.20;71.80;;;;;;2285541;62;30245;-78
2022/03/21 04:25:51;;;;;;;8.40;7.50;;;14.20;71.90;;;;;;2285699;62;30461;-78
2022/03/21 04:28:17;;;;;;;8.90;7.85;;;14.20;71.90;;;;;;2285729;62;30110;-78
2022/03/21 04:30:43;;;;;;;8.52;7.35;;;14.20;71.90;;;;;;2288608;62;30449;-79
2022/03/21 04:33:10;;;;;;;8.98;8.07;;;14.10;71.90;;;;;;2286912;62;30953;-79
2022/03/21 04:35:36;;;;;;;8.65;7.78;;;14.10;71.90;;;;;;2285630;62;30710;-79
2022/03/21 04:38:02;;;;;;;8.70;7.70;;;14.10;72.00;;;;;;2278073;62;30155;-79
2022/03/21 04:40:28;;;;;;;10.02;7.45;;;14.10;72.00;;;;;;2278297;62;30129;-79
2022/03/21 04:42:54;;;;;;;10.20;7.82;;;14.10;72.00;;;;;;2278151;62;31553;-79
2022/03/21 04:45:20;;;;;;;8.25;7.45;;;14.10;72.00;;;;;;2277998;62;30272;-79
2022/03/21 04:47:46;;;;;;;9.02;7.22;;;14.00;72.00;;;;;;2278050;62;30129;-79
2022/03/21 04:50:13;;;;;;;9.13;8.13;;;14.00;72.10;;;;;;2285271;62;30390;-79
2022/03/21 04:52:39;;;;;;;8.95;8.05;;;14.00;72.10;;;;;;2285493;62;31552;-79
2022/03/21 04:55:07;;;;;;;9.15;8.25;;;14.00;72.10;;;;;;2285380;62;30897;-79
2022/03/21 04:57:34;;;;;;;9.23;8.32;;;14.00;72.10;;;;;;2278126;62;30214;-78
2022/03/21 05:00:01;;;;;;;9.93;7.78;;;14.00;72.20;;;;;;2278174;62;30041;-78
2022/03/21 05:02:27;;;;;;;8.70;7.55;;;14.00;72.20;;;;;;2285400;62;30123;-78
2022/03/21 05:04:53;;;;;;;7.95;7.18;;;14.00;72.20;;;;;;2285003;62;31703;-78
2022/03/21 05:07:19;;;;;;;8.52;7.55;;;13.90;72.20;;;;;;2285354;62;30129;-78
2022/03/21 05:09:47;;;;;;;8.95;7.50;;;13.90;72.30;;;;;;2285405;62;30151;-77
2022/03/21 05:12:13;;;;;;;10.57;7.75;;;13.90;72.30;;;;;;2285184;62;31039;-79
2022/03/21 05:14:39;;;;;;;7.93;7.13;;;14.00;72.40;;;;;;2285259;62;30566;-78
2022/03/21 05:17:05;;;;;;;7.85;7.13;;;13.90;72.30;;;;;;2285191;62;30191;-78
2022/03/21 05:19:35;;;;;;;7.95;7.15;;;13.90;72.30;;;;;;2277681;62;30339;-78
2022/03/21 05:22:04;;;;;;;8.93;7.78;;;13.90;72.40;;;;;;2289013;62;30218;-78
2022/03/21 05:32:44;;;;;;;8.07;7.28;;;13.80;72.50;;;;;;2278747;62;31393;-79
2022/03/21 05:37:54;;;;;;;9.75;7.63;;;13.80;72.50;;;;;;2285264;62;30087;-78
2022/03/21 05:40:34;;;;;;;7.88;7.07;;;13.80;72.40;;;;;;2285039;62;30287;-79
2022/03/21 05:43:01;;;;;;;8.50;6.78;;;13.80;72.50;;;;;;2285230;62;32121;-79
2022/03/21 05:45:28;;;;;;;8.25;7.18;;;13.80;72.50;;;;;;2285196;62;30724;-78
2022/03/21 05:50:38;;;;;;;8.63;6.95;;;13.80;72.50;;;;;;2273098;62;30135;-78
2022/03/21 05:53:04;;;;;;;8.10;7.13;;;13.80;72.50;;;;;;2270716;62;31982;-78
2022/03/21 05:55:32;;;;;;;7.82;7.03;;;13.70;72.40;;;;;;2284844;62;30069;-78
2022/03/21 05:57:58;;;;;;;7.50;6.80;;;13.80;72.50;;;;;;2271106;62;30133;-78
2022/03/21 06:00:24;;;;;;;7.38;6.68;;;13.70;72.40;;;;;;2277599;62;30227;-79
2022/03/21 06:02:51;;;;;;;7.00;6.30;;;13.80;72.40;;;;;;2270766;62;31208;-78
2022/03/21 06:05:23;;;;;;;8.65;7.07;;;13.70;72.40;;;;;;2284927;62;30875;-78
2022/03/21 06:07:50;;;;;;;7.43;6.25;;;13.80;72.40;;;;;;2277514;62;30733;-78
2022/03/21 06:10:17;;;;;;;8.32;6.10;;;13.80;72.30;;;;;;2277693;62;30260;-78
2022/03/21 06:12:43;;;;;;;6.85;5.70;;;13.70;72.30;;;;;;2285444;62;30907;-79
2022/03/21 06:15:09;;;;;;;7.13;6.43;;;13.80;72.30;;;;;;2284852;62;30149;-78
2022/03/21 06:17:42;;;;;;;7.03;6.32;;;13.80;72.40;;;;;;2277500;62;30148;-79
2022/03/21 06:20:09;;;;;;;6.93;5.68;;;13.80;72.20;;;;;;2270748;62;30390;-78
2022/03/21 06:22:35;;;;;;;7.55;6.07;;;13.80;72.30;;;;;;2277341;62;30469;-79
2022/03/21 06:25:01;;;;;;;7.35;6.10;;;13.80;72.20;;;;;;2284815;62;30807;-78
2022/03/21 06:27:27;;;;;;;6.05;5.43;;;13.80;72.20;;;;;;2277517;62;30128;-78
2022/03/21 06:29:53;;;;;;;7.32;5.55;;;13.80;72.10;;;;;;2284640;62;30110;-78
2022/03/21 06:32:19;;;;;;;6.30;5.70;;;13.80;72.10;;;;;;2277611;62;32063;-79
2022/03/21 06:34:45;;;;;;;6.57;5.57;;;13.80;72.20;;;;;;2277389;62;30849;-78
2022/03/21 06:37:11;;;;;;;7.57;5.90;;;13.90;72.20;;;;;;2284512;62;30158;-78
2022/03/21 06:39:37;;;;;;;5.90;5.10;;;13.90;72.10;;;;;;2277556;62;30300;-78
2022/03/21 06:42:03;;;;;;;5.63;5.13;;;13.90;72.00;;;;;;2284839;62;31058;-79
2022/03/21 06:44:29;;;;;;;6.78;5.32;;;14.00;72.00;;;;;;2277392;62;30290;-79
2022/03/21 06:46:57;;;;;;;5.82;5.22;;;14.00;72.20;;;;;;2284880;62;30148;-78
2022/03/21 06:49:29;;;;;;;5.28;4.80;;;14.00;72.10;;;;;;2284892;62;30035;-78
2022/03/21 06:51:58;;;;;;;6.28;5.10;;;14.00;72.10;;;;;;2284458;62;31084;-78
2022/03/21 06:54:24;;;;;;;5.05;4.50;;;14.10;71.70;;;;;;2268440;62;30792;-78
2022/03/21 06:56:50;;;;;;;4.68;4.25;;;14.10;71.60;;;;;;2268277;62;29979;-79
2022/03/21 06:59:16;;;;;;;5.32;4.68;;;14.10;71.60;;;;;;2268512;62;30334;-78
2022/03/21 07:01:42;;;;;;;5.45;4.85;;;14.10;71.70;;;;;;2270785;62;30859;-78
2022/03/21 07:04:08;;;;;;;6.55;4.53;;;14.10;71.50;;;;;;2269591;62;30193;-79
2022/03/21 07:06:34;;;;;;;4.80;4.32;;;14.10;71.60;;;;;;2268435;62;30133;-78
2022/03/21 07:08:59;;;;;;;5.10;4.53;;;14.10;71.50;;;;;;2268403;62;30520;-79
2022/03/21 07:11:29;;;;;;;4.85;4.32;;;14.10;71.50;;;;;;2267859;62;31127;-79
2022/03/21 07:13:54;;;;;;;4.95;4.47;;;14.10;71.50;;;;;;2268418;62;30174;-80
2022/03/21 07:16:20;;;;;;;5.03;4.30;;;14.10;71.50;;;;;;2268523;62;30324;-80
2022/03/21 07:18:48;;;;;;;5.07;4.57;;;14.20;71.50;;;;;;2267746;62;30388;-79
2022/03/21 07:21:15;;;;;;;5.00;4.32;;;14.20;71.50;;;;;;2268203;62;31494;-79
2022/03/21 07:23:41;;;;;;;5.63;4.75;;;14.20;71.40;;;;;;2268224;62;31803;-79
2022/03/21 07:26:07;;;;;;;8.68;7.78;;;14.20;71.30;;;;;;2267964;62;30621;-78
2022/03/21 07:28:32;;;;;;;12.13;8.98;;;14.20;70.70;;;;;;2268431;62;30289;-78
2022/03/21 07:30:58;;;;;;;9.77;8.35;;;14.20;70.40;;;;;;2268283;62;32105;-78
2022/03/21 07:33:24;;;;;;;11.68;9.02;;;14.10;70.40;;;;;;2263608;62;30630;-77
2022/03/21 07:35:51;;;;;;;10.48;9.38;;;14.10;70.40;;;;;;2259958;62;30134;-77
2022/03/21 07:38:19;;;;;;;12.07;9.73;;;14.10;70.50;;;;;;2267615;62;30349;-77
2022/03/21 07:40:46;;;;;;;12.60;9.82;;;14.10;70.40;;;;;;2267831;62;30884;-77
2022/03/21 07:43:13;;;;;;;10.32;9.27;;;14.10;70.50;;;;;;2268038;62;30588;-77
2022/03/21 07:48:25;;;;;;;13.60;11.23;;;14.10;70.50;;;;;;2267913;62;30047;-77
2022/03/21 07:50:52;;;;;;;10.95;9.25;;;14.00;70.40;;;;;;2260828;62;30869;-76
2022/03/21 07:53:18;;;;;;;12.02;10.35;;;14.00;70.90;;;;;;2277764;62;30690;-77
2022/03/21 07:55:44;;;;;;;12.57;10.50;;;14.10;70.50;;;;;;2277022;62;30186;-77
2022/03/21 07:58:09;;;;;;;12.77;10.98;;;14.00;70.50;;;;;;2284162;62;30090;-78
2022/03/21 08:00:35;;;;;;;12.77;10.70;;;14.00;70.30;;;;;;2283908;62;31177;-78
2022/03/21 08:03:02;;;;;;;13.40;11.23;;;14.10;70.60;;;;;;2284328;62;30611;-78
2022/03/21 08:05:29;;;;;;;13.68;11.88;;;14.10;70.40;;;;;;2284138;62;30194;-78
2022/03/21 08:07:55;;;;;;;12.95;11.15;;;14.00;70.30;;;;;;2283956;62;30352;-77
2022/03/21 08:10:21;;;;;;;12.13;10.68;;;14.10;70.40;;;;;;2284293;62;30443;-78
2022/03/21 08:12:49;;;;;;;15.50;11.00;;;14.10;70.50;;;;;;2284309;62;30648;-78
2022/03/21 08:15:17;;;;;;;14.85;12.15;;;14.10;70.40;;;;;;2283795;62;30350;-78
2022/03/21 08:17:57;;;;;;;15.55;13.00;;;14.10;70.30;;;;;;2270171;62;30241;-76
2022/03/21 08:20:24;;;;;;;14.70;11.80;;;14.10;70.00;;;;;;2269890;62;32713;-73
2022/03/21 08:22:50;;;;;;;13.20;11.57;;;14.10;70.50;;;;;;2283907;62;31023;-73
2022/03/21 08:25:17;;;;;;;14.13;11.88;;;14.20;70.40;;;;;;2276809;62;30152;-73
2022/03/21 08:27:44;;;;;;;14.68;11.13;;;14.20;70.30;;;;;;2284307;62;30354;-73
2022/03/21 08:30:15;;;;;;;14.13;12.45;;;14.30;70.20;;;;;;2269866;62;32506;-74
2022/03/21 08:32:42;;;;;;;15.52;13.00;;;14.40;69.90;;;;;;2284129;62;30268;-72
2022/03/21 08:35:09;;;;;;;15.35;13.20;;;14.40;69.70;;;;;;2276735;62;30169;-71
2022/03/21 08:37:35;;;;;;;18.17;13.65;;;14.50;69.60;;;;;;2276536;62;30175;-72
2022/03/21 08:40:02;;;;;;;15.02;12.65;;;14.50;69.40;;;;;;2283886;62;31005;-73
2022/03/21 08:42:29;;;;;;;18.38;14.45;;;14.50;69.40;;;;;;2276370;62;30385;-72
2022/03/21 08:44:56;;;;;;;18.50;13.45;;;14.50;69.20;;;;;;2276622;62;30161;-72
2022/03/21 08:47:22;;;;;;;16.48;13.25;;;14.50;69.30;;;;;;2276570;62;30431;-73
2022/03/21 08:49:48;;;;;;;14.38;12.82;;;14.60;69.20;;;;;;2276408;62;30038;-72
2022/03/21 08:52:14;;;;;;;15.90;13.68;;;14.60;69.10;;;;;;2283861;62;30411;-72
2022/03/21 08:54:41;;;;;;;16.60;13.40;;;14.60;69.00;;;;;;2284092;62;30077;-74
2022/03/21 08:57:07;;;;;;;14.82;12.68;;;14.60;68.90;;;;;;2283610;62;30375;-73
2022/03/21 08:59:33;;;;;;;18.45;14.32;;;14.60;68.90;;;;;;2284010;62;30928;-71
2022/03/21 09:02:02;;;;;;;17.42;13.30;;;14.70;68.90;;;;;;2285099;62;30236;-70
2022/03/21 09:04:28;;;;;;;19.30;14.73;;;14.70;69.00;;;;;;2285027;62;30122;-70
2022/03/21 09:06:57;;;;;;;14.75;12.68;;;14.60;68.80;;;;;;2285401;62;30480;-71
2022/03/21 09:09:23;;;;;;;14.82;12.25;;;14.60;69.00;;;;;;2277847;62;30221;-70
2022/03/21 09:11:49;;;;;;;17.25;14.63;;;14.60;69.20;;;;;;2284993;62;30818;-71
2022/03/21 09:14:16;;;;;;;16.73;14.40;;;14.60;69.10;;;;;;2285178;62;30204;-70
2022/03/21 09:16:42;;;;;;;16.52;13.05;;;14.60;69.00;;;;;;2285114;62;30054;-69
2022/03/21 09:19:09;;;;;;;15.00;13.18;;;14.60;69.20;;;;;;2284948;62;30998;-74
2022/03/21 09:21:35;;;;;;;19.42;14.43;;;14.60;69.30;;;;;;2282795;62;30682;-73
2022/03/21 09:24:02;;;;;;;14.57;12.77;;;14.70;68.90;;;;;;2285073;62;30191;-73
2022/03/21 09:26:27;;;;;;;15.70;13.48;;;14.70;69.10;;;;;;2277511;62;30714;-72
2022/03/21 09:29:05;;;;;;;17.97;13.70;;;14.70;69.10;;;;;;2285122;62;31994;-72
2022/03/21 09:31:33;;;;;;;15.02;13.45;;;14.60;68.90;;;;;;2284948;62;30706;-72
2022/03/21 09:33:59;;;;;;;14.05;11.82;;;14.70;69.20;;;;;;2284959;62;30244;-72
2022/03/21 09:36:26;;;;;;;17.92;13.10;;;14.60;69.10;;;;;;2285145;62;30119;-72
2022/03/21 09:38:52;;;;;;;15.82;12.60;;;14.60;69.10;;;;;;2284832;62;31166;-72
2022/03/21 09:41:23;;;;;;;16.73;13.52;;;14.60;69.00;;;;;;2277712;62;30278;-75
2022/03/21 09:43:54;;;;;;;15.07;12.60;;;14.60;68.70;;;;;;2271050;62;30302;-76
2022/03/21 09:46:21;;;;;;;15.63;12.73;;;14.60;68.90;;;;;;2283807;62;30087;-74
2022/03/21 09:48:51;;;;;;;17.65;13.68;;;14.60;69.00;;;;;;2276548;62;30112;-74
2022/03/21 09:51:27;;;;;;;16.65;13.10;;;14.60;68.80;;;;;;2277726;62;30210;-77
2022/03/21 09:53:58;;;;;;;15.85;13.05;;;14.60;68.70;;;;;;2267691;62;30287;-75
2022/03/21 09:56:25;;;;;;;14.02;12.45;;;14.60;68.90;;;;;;2265535;62;30171;-76
2022/03/21 09:58:58;;;;;;;14.80;12.68;;;14.60;69.60;;;;;;2266691;62;30189;-75
2022/03/21 10:01:25;;;;;;;13.85;12.18;;;14.60;68.90;;;;;;2260302;63;30204;-71
2022/03/21 10:03:51;;;;;;;16.13;12.45;;;14.60;68.90;;;;;;2266105;62;30791;-74
2022/03/21 10:06:33;;;;;;;14.98;11.95;;;14.60;68.90;;;;;;2275012;62;30319;-77
2022/03/21 10:09:19;;;;;;;15.00;11.45;;;14.60;68.80;;;;;;2268402;62;30240;-78
2022/03/21 10:11:57;;;;;;;14.52;11.85;;;14.60;68.80;;;;;;2268510;62;30806;-76
2022/03/21 10:14:32;;;;;;;13.18;10.63;;;14.60;69.10;;;;;;2274215;62;30354;-75
2022/03/21 10:17:06;;;;;;;15.32;11.98;;;14.70;69.00;;;;;;2268080;62;30049;-78
2022/03/21 10:19:48;;;;;;;13.00;10.55;;;14.60;69.00;;;;;;2265989;62;30951;-71
2022/03/21 10:22:15;;;;;;;;;;;14.70;69.10;;;;;;2267154;62;30218;-76
2022/03/21 10:24:42;;;;;;;14.50;11.18;;;14.70;69.20;;;;;;2268541;62;30050;-78
2022/03/21 10:27:28;;;;;;;12.35;10.48;;;14.70;69.10;;;;;;2267267;62;30226;-74
2022/03/21 10:29:59;;;;;;;11.13;9.27;;;14.70;69.20;;;;;;2267724;62;31254;-75
2022/03/21 10:32:36;;;;;;;13.07;9.85;;;14.70;69.20;;;;;;2274662;62;30218;-73
2022/03/21 10:35:05;;;;;;;13.48;10.27;;;14.70;69.30;;;;;;2274486;62;30193;-74
2022/03/21 10:37:40;;;;;;;10.82;9.30;;;14.70;69.30;;;;;;2268533;62;30100;-71
2022/03/21 10:40:18;;;;;;;10.93;9.23;;;14.80;69.50;;;;;;2274774;62;30331;-71
2022/03/21 10:42:55;;;;;;;11.20;9.40;;;14.70;69.30;;;;;;2274063;62;30329;-73
2022/03/21 10:45:25;;;;;;;10.93;9.00;;;14.80;69.50;;;;;;2268495;62;30141;-74
2022/03/21 10:47:52;;;;;;;10.07;8.60;;;14.80;69.50;;;;;;2274755;62;30361;-75
2022/03/21 10:50:28;;;;;;;9.63;8.32;;;14.80;69.50;;;;;;2268127;62;32463;-73
2022/03/21 10:53:09;;;;;;;9.95;8.50;;;14.80;69.60;;;;;;2274726;62;30229;-75
2022/03/21 10:55:36;;;;;;;11.63;8.80;;;14.80;69.60;;;;;;2270834;62;30119;-73
2022/03/21 10:58:02;;;;;;;11.32;8.52;;;14.90;69.60;;;;;;2277231;62;30380;-73
2022/03/21 11:00:28;;;;;;;12.00;8.13;;;14.90;69.50;;;;;;2284340;62;30170;-75
2022/03/21 11:03:05;;;;;;;11.45;8.57;;;14.90;69.50;;;;;;2277292;62;30639;-74
2022/03/21 11:05:34;;;;;;;9.02;8.13;;;15.00;69.60;;;;;;2284739;62;30452;-73
2022/03/21 11:08:00;;;;;;;12.40;7.63;;;15.10;69.50;;;;;;2277388;62;30145;-74
2022/03/21 11:10:28;;;;;;;10.43;7.32;;;15.10;69.40;;;;;;2277256;62;32430;-74
2022/03/21 11:12:55;;;;;;;9.13;7.88;;;15.20;69.40;;;;;;2284605;62;32214;-73
2022/03/21 11:15:22;;;;;;;9.68;7.13;;;15.20;69.40;;;;;;2284675;62;30524;-74
2022/03/21 11:17:48;;;;;;;10.77;7.00;;;15.20;69.40;;;;;;2269790;62;30677;-74
2022/03/21 11:20:14;;;;;;;13.50;7.13;;;15.20;69.40;;;;;;2284252;62;31239;-74
2022/03/21 11:22:41;;;;;;;9.57;7.75;;;15.30;69.50;;;;;;2284431;62;30454;-74
2022/03/21 11:25:17;;;;;;;9.55;6.97;;;15.30;69.60;;;;;;2270090;62;30379;-74
2022/03/21 11:27:50;;;;;;;10.57;6.80;;;15.30;69.50;;;;;;2270126;62;30098;-73
2022/03/21 11:30:30;;;;;;;8.85;6.18;;;15.40;69.50;;;;;;2284661;62;31443;-74
2022/03/21 11:33:27;;;;;;;8.68;6.85;;;15.40;69.50;;;;;;2284148;62;30550;-73
2022/03/21 11:36:04;;;;;;;8.43;6.22;;;15.40;69.60;;;;;;2284534;62;30089;-74
2022/03/21 11:38:31;;;;;;;8.27;6.25;;;15.40;69.60;;;;;;2274388;62;30374;-73
2022/03/21 11:41:18;;;;;;;10.38;6.35;;;15.50;69.50;;;;;;2275612;62;31462;-73
2022/03/21 11:43:45;;;;;;;9.98;6.32;;;15.50;69.60;;;;;;2284318;62;30643;-74
2022/03/21 11:46:38;;;;;;;8.38;6.30;;;15.60;69.40;;;;;;2276811;62;30292;-74
2022/03/21 11:49:04;;;;;;;;;;;15.60;69.50;;;;;;2275697;62;30267;-73
2022/03/21 11:51:38;;;;;;;10.23;6.78;;;15.60;69.50;;;;;;2276690;62;30974;-73
2022/03/21 11:54:07;;;;;;;8.55;6.50;;;15.70;69.30;;;;;;2276642;62;30479;-72
2022/03/21 11:56:45;;;;;;;7.60;6.57;;;15.70;69.30;;;;;;2270137;62;30205;-72
2022/03/21 11:59:33;;;;;;;7.15;6.28;;;15.80;69.40;;;;;;2284334;62;30479;-72
2022/03/21 12:02:28;;;;;;;8.23;6.45;;;15.80;69.30;;;;;;2277018;62;31337;-69
2022/03/21 12:05:02;;;;;;;9.43;6.78;;;15.80;69.00;;;;;;2284342;62;30111;-70
2022/03/21 12:07:30;;;;;;;7.18;6.30;;;15.90;69.00;;;;;;2281804;62;30074;-70
2022/03/21 12:09:56;;;;;;;7.82;6.90;;;15.90;69.00;;;;;;2268732;62;30422;-69
2022/03/21 12:12:22;;;;;;;12.60;10.30;;;16.00;68.90;;;;;;2276212;62;30350;-70
2022/03/21 12:14:56;;;;;;;14.75;10.40;;;16.00;67.30;;;;;;2274574;62;31048;-70
2022/03/21 12:17:24;;;;;;;12.15;9.30;;;16.00;66.70;;;;;;2270621;62;30342;-70
2022/03/21 12:19:51;;;;;;;15.93;12.93;;;16.00;67.10;;;;;;2284387;62;30177;-71
2022/03/21 12:22:29;;;;;;;14.02;11.00;;;16.00;66.10;;;;;;2283666;62;30577;-71
2022/03/21 12:25:15;;;;;;;16.55;13.68;;;15.90;64.50;;;;;;2283538;62;30777;-70
2022/03/21 12:27:57;;;;;;;16.20;12.48;;;16.00;63.30;;;;;;2283556;62;30550;-70
2022/03/21 12:30:23;;;;;;;16.42;12.07;;;15.90;63.90;;;;;;2282707;62;30253;-73
2022/03/21 12:32:54;;;;;;;14.93;12.48;;;15.90;65.00;;;;;;2283583;62;30144;-71
2022/03/21 12:35:32;;;;;;;16.55;12.45;;;16.00;64.80;;;;;;2284081;62;30421;-73
2022/03/21 12:38:01;;;;;;;19.05;13.65;;;16.10;64.20;;;;;;2285409;62;30419;-73
2022/03/21 12:40:27;;;;;;;17.92;13.63;;;16.10;63.40;;;;;;2285300;62;30514;-72
2022/03/21 12:42:54;;;;;;;14.43;12.57;;;16.20;64.00;;;;;;2277440;62;31053;-73
2022/03/21 12:45:20;;;;;;;18.30;13.18;;;16.20;63.80;;;;;;2270686;62;30086;-73
2022/03/21 12:47:47;;;;;;;14.35;12.07;;;16.20;63.60;;;;;;2270951;62;30311;-73
2022/03/21 12:50:21;;;;;;;16.98;14.35;;;16.30;63.50;;;;;;2287647;62;30053;-95
2022/03/21 12:52:54;;;;;;;16.60;12.98;;;16.30;62.50;;;;;;2270947;62;31615;-86
2022/03/21 12:55:21;;;;;;;18.30;14.07;;;16.30;62.50;;;;;;2269596;62;30104;-87
2022/03/21 12:58:01;;;;;;;20.17;14.88;;;16.30;62.00;;;;;;2275268;62;30567;-86
2022/03/21 13:00:34;;;;;;;15.05;12.88;;;16.40;61.90;;;;;;2269055;62;30021;-86